sensor_id;sensor_type;location;lat;lon;timestamp;pressure;altitude;pressure_sealevel;temperature;humidity
17054;BME280;8643;48.824;11.422;2023-07-09T00:02:25;97347.44;;;16.82;86.24
17054;BME280;8643;48.824;11.422;2023-07-09T00:04:54;97349.50;;;16.85;87.14
17054;BME280;8643;48.824;11.422;2023-07-09T00:07:25;97345.91;;;16.84;86.65
17054;BME280;8643;48.824;11.422;2023-07-09T00:09:55;97343.50;;;16.83;86.86
17054;BME280;8643;48.824;11.422;2023-07-09T00:12:25;97343.06;;;16.81;85.44
17054;BME280;8643;48.824;11.422;2023-07-09T00:14:54;97339.00;;;16.75;84.97
17054;BME280;8643;48.824;11.422;2023-07-09T00:17:29;97337.66;;;16.68;85.59
17054;BME280;8643;48.824;11.422;2023-07-09T00:20:01;97348.28;;;16.66;86.83
17054;BME280;8643;48.824;11.422;2023-07-09T00:22:31;97342.69;;;16.63;87.56
17054;BME280;8643;48.824;11.422;2023-07-09T00:25:01;97347.78;;;16.61;87.77
17054;BME280;8643;48.824;11.422;2023-07-09T00:27:31;97350.38;;;16.54;88.29
17054;BME280;8643;48.824;11.422;2023-07-09T00:30:00;97345.34;;;16.40;88.51
17054;BME280;8643;48.824;11.422;2023-07-09T00:32:32;97348.53;;;16.42;89.16
17054;BME280;8643;48.824;11.422;2023-07-09T00:35:11;97347.25;;;16.55;89.84
17054;BME280;8643;48.824;11.422;2023-07-09T00:37:43;97348.94;;;16.60;90.79
17054;BME280;8643;48.824;11.422;2023-07-09T00:40:19;97350.47;;;16.57;86.63
17054;BME280;8643;48.824;11.422;2023-07-09T00:42:50;97355.75;;;16.46;87.97
17054;BME280;8643;48.824;11.422;2023-07-09T00:45:21;97354.53;;;16.28;88.33
17054;BME280;8643;48.824;11.422;2023-07-09T00:47:55;97372.06;;;15.84;90.12
17054;BME280;8643;48.824;11.422;2023-07-09T00:50:36;97364.78;;;15.64;90.35
17054;BME280;8643;48.824;11.422;2023-07-09T00:53:16;97369.19;;;15.81;91.54
17054;BME280;8643;48.824;11.422;2023-07-09T00:55:54;97352.19;;;15.94;92.17
17054;BME280;8643;48.824;11.422;2023-07-09T00:58:25;97357.22;;;16.08;92.64
17054;BME280;8643;48.824;11.422;2023-07-09T01:01:01;97353.03;;;16.15;92.00
17054;BME280;8643;48.824;11.422;2023-07-09T01:03:36;97359.75;;;16.13;91.52
17054;BME280;8643;48.824;11.422;2023-07-09T01:06:07;97359.28;;;16.11;90.90
17054;BME280;8643;48.824;11.422;2023-07-09T01:08:39;97374.53;;;16.05;91.44
17054;BME280;8643;48.824;11.422;2023-07-09T01:11:16;97368.28;;;16.08;91.54
17054;BME280;8643;48.824;11.422;2023-07-09T01:13:48;97375.97;;;15.99;91.98
17054;BME280;8643;48.824;11.422;2023-07-09T01:16:19;97364.22;;;16.02;90.18
17054;BME280;8643;48.824;11.422;2023-07-09T01:18:53;97370.53;;;16.03;90.89
17054;BME280;8643;48.824;11.422;2023-07-09T01:21:23;97368.81;;;15.98;91.74
17054;BME280;8643;48.824;11.422;2023-07-09T01:23:52;97363.66;;;16.12;89.98
17054;BME280;8643;48.824;11.422;2023-07-09T01:26:24;97370.75;;;16.29;88.23
17054;BME280;8643;48.824;11.422;2023-07-09T01:28:54;97373.75;;;16.56;85.64
17054;BME280;8643;48.824;11.422;2023-07-09T01:31:23;97365.06;;;16.74;83.55
17054;BME280;8643;48.824;11.422;2023-07-09T01:33:52;97365.09;;;16.58;85.26
17054;BME280;8643;48.824;11.422;2023-07-09T01:36:23;97368.69;;;16.78;84.84
17054;BME280;8643;48.824;11.422;2023-07-09T01:38:53;97361.88;;;17.11;82.57
17054;BME280;8643;48.824;11.422;2023-07-09T01:41:23;97368.50;;;17.26;81.51
17054;BME280;8643;48.824;11.422;2023-07-09T01:43:52;97359.13;;;16.91;84.51
17054;BME280;8643;48.824;11.422;2023-07-09T01:46:21;97364.75;;;16.59;86.02
17054;BME280;8643;48.824;11.422;2023-07-09T01:48:50;97373.50;;;16.29;88.17
17054;BME280;8643;48.824;11.422;2023-07-09T01:51:20;97367.47;;;16.24;87.95
17054;BME280;8643;48.824;11.422;2023-07-09T01:53:52;97365.28;;;16.49;83.59
17054;BME280;8643;48.824;11.422;2023-07-09T01:56:21;97366.56;;;16.36;86.82
17054;BME280;8643;48.824;11.422;2023-07-09T01:58:51;97374.63;;;16.09;87.03
17054;BME280;8643;48.824;11.422;2023-07-09T02:01:20;97386.72;;;15.88;89.04
17054;BME280;8643;48.824;11.422;2023-07-09T02:03:54;97374.63;;;15.77;91.37
17054;BME280;8643;48.824;11.422;2023-07-09T02:06:23;97380.28;;;15.68;91.17
17054;BME280;8643;48.824;11.422;2023-07-09T02:08:53;97385.25;;;15.63;91.07
17054;BME280;8643;48.824;11.422;2023-07-09T02:11:22;97380.97;;;15.49;91.91
17054;BME280;8643;48.824;11.422;2023-07-09T02:13:51;97384.91;;;15.48;92.61
17054;BME280;8643;48.824;11.422;2023-07-09T02:16:20;97381.84;;;15.37;93.41
17054;BME280;8643;48.824;11.422;2023-07-09T02:18:50;97390.84;;;15.22;94.60
17054;BME280;8643;48.824;11.422;2023-07-09T02:21:19;97387.13;;;15.14;94.71
17054;BME280;8643;48.824;11.422;2023-07-09T02:23:47;97390.72;;;15.02;96.40
17054;BME280;8643;48.824;11.422;2023-07-09T02:26:17;97389.47;;;15.00;97.24
17054;BME280;8643;48.824;11.422;2023-07-09T02:28:46;97387.41;;;14.97;97.68
17054;BME280;8643;48.824;11.422;2023-07-09T02:31:14;97380.06;;;14.89;98.44
17054;BME280;8643;48.824;11.422;2023-07-09T02:33:44;97383.88;;;14.84;99.23
17054;BME280;8643;48.824;11.422;2023-07-09T02:36:15;97384.78;;;14.88;98.19
17054;BME280;8643;48.824;11.422;2023-07-09T02:38:44;97384.09;;;14.91;98.81
17054;BME280;8643;48.824;11.422;2023-07-09T02:41:13;97391.09;;;14.89;99.09
17054;BME280;8643;48.824;11.422;2023-07-09T02:43:43;97399.72;;;14.75;97.89
17054;BME280;8643;48.824;11.422;2023-07-09T02:46:11;97397.81;;;14.75;99.58
17054;BME280;8643;48.824;11.422;2023-07-09T02:48:40;97398.75;;;14.67;99.23
17054;BME280;8643;48.824;11.422;2023-07-09T02:51:09;97393.91;;;14.64;100.00
17054;BME280;8643;48.824;11.422;2023-07-09T02:53:37;97392.75;;;14.65;100.00
17054;BME280;8643;48.824;11.422;2023-07-09T02:56:06;97397.69;;;14.72;100.00
17054;BME280;8643;48.824;11.422;2023-07-09T02:58:35;97392.41;;;14.54;100.00
17054;BME280;8643;48.824;11.422;2023-07-09T03:01:05;97400.34;;;14.56;100.00
17054;BME280;8643;48.824;11.422;2023-07-09T03:03:34;97398.03;;;14.58;100.00
17054;BME280;8643;48.824;11.422;2023-07-09T03:06:02;97395.97;;;14.55;100.00
17054;BME280;8643;48.824;11.422;2023-07-09T03:08:32;97394.38;;;14.66;100.00
17054;BME280;8643;48.824;11.422;2023-07-09T03:11:09;97399.28;;;14.73;100.00
17054;BME280;8643;48.824;11.422;2023-07-09T03:13:38;97399.63;;;14.83;100.00
17054;BME280;8643;48.824;11.422;2023-07-09T03:16:08;97404.22;;;14.79;99.59
17054;BME280;8643;48.824;11.422;2023-07-09T03:18:37;97405.03;;;14.80;100.00
17054;BME280;8643;48.824;11.422;2023-07-09T03:21:06;97412.13;;;14.81;100.00
17054;BME280;8643;48.824;11.422;2023-07-09T03:23:35;97409.38;;;14.81;100.00
17054;BME280;8643;48.824;11.422;2023-07-09T03:26:04;97406.63;;;14.81;100.00
17054;BME280;8643;48.824;11.422;2023-07-09T03:28:33;97406.72;;;14.84;100.00
17054;BME280;8643;48.824;11.422;2023-07-09T03:31:02;97398.91;;;14.87;99.93
17054;BME280;8643;48.824;11.422;2023-07-09T03:33:32;97406.03;;;14.88;98.98
17054;BME280;8643;48.824;11.422;2023-07-09T03:36:01;97402.13;;;14.89;100.00
17054;BME280;8643;48.824;11.422;2023-07-09T03:38:32;97407.91;;;15.12;100.00
17054;BME280;8643;48.824;11.422;2023-07-09T03:41:00;97418.50;;;15.38;97.86
17054;BME280;8643;48.824;11.422;2023-07-09T03:43:29;97416.78;;;15.33;98.79
17054;BME280;8643;48.824;11.422;2023-07-09T03:45:58;97414.09;;;15.21;98.11
17054;BME280;8643;48.824;11.422;2023-07-09T03:48:27;97411.16;;;15.01;100.00
17054;BME280;8643;48.824;11.422;2023-07-09T03:50:57;97423.25;;;14.97;100.00
17054;BME280;8643;48.824;11.422;2023-07-09T03:53:25;97422.56;;;14.88;100.00
17054;BME280;8643;48.824;11.422;2023-07-09T03:55:55;97423.94;;;14.94;100.00
17054;BME280;8643;48.824;11.422;2023-07-09T03:58:25;97432.97;;;15.07;100.00
17054;BME280;8643;48.824;11.422;2023-07-09T04:00:54;97440.59;;;14.97;100.00
17054;BME280;8643;48.824;11.422;2023-07-09T04:03:23;97428.78;;;14.84;100.00
17054;BME280;8643;48.824;11.422;2023-07-09T04:05:52;97426.38;;;14.83;100.00
17054;BME280;8643;48.824;11.422;2023-07-09T04:08:22;97430.03;;;14.99;100.00
17054;BME280;8643;48.824;11.422;2023-07-09T04:10:52;97429.63;;;15.13;100.00
17054;BME280;8643;48.824;11.422;2023-07-09T04:13:21;97427.34;;;15.44;100.00
17054;BME280;8643;48.824;11.422;2023-07-09T04:15:50;97429.03;;;15.76;99.46
17054;BME280;8643;48.824;11.422;2023-07-09T04:18:19;97429.41;;;15.63;97.45
17054;BME280;8643;48.824;11.422;2023-07-09T04:20:48;97436.84;;;15.46;98.89
17054;BME280;8643;48.824;11.422;2023-07-09T04:23:18;97435.38;;;15.20;99.00
17054;BME280;8643;48.824;11.422;2023-07-09T04:25:48;97428.94;;;15.16;100.00
17054;BME280;8643;48.824;11.422;2023-07-09T04:28:17;97438.84;;;15.33;99.44
17054;BME280;8643;48.824;11.422;2023-07-09T04:30:47;97437.47;;;15.68;100.00
17054;BME280;8643;48.824;11.422;2023-07-09T04:33:17;97441.28;;;15.63;100.00
17054;BME280;8643;48.824;11.422;2023-07-09T04:35:48;97446.94;;;15.54;100.00
17054;BME280;8643;48.824;11.422;2023-07-09T04:38:17;97446.31;;;15.45;100.00
17054;BME280;8643;48.824;11.422;2023-07-09T04:40:48;97454.13;;;15.43;100.00
17054;BME280;8643;48.824;11.422;2023-07-09T04:43:17;97452.00;;;15.52;100.00
17054;BME280;8643;48.824;11.422;2023-07-09T04:45:45;97448.19;;;15.57;100.00
17054;BME280;8643;48.824;11.422;2023-07-09T04:48:14;97452.50;;;15.70;100.00
17054;BME280;8643;48.824;11.422;2023-07-09T04:50:43;97458.97;;;15.90;100.00
17054;BME280;8643;48.824;11.422;2023-07-09T04:53:12;97451.41;;;16.03;100.00
17054;BME280;8643;48.824;11.422;2023-07-09T04:55:40;97459.44;;;16.08;100.00
17054;BME280;8643;48.824;11.422;2023-07-09T04:58:10;97453.66;;;16.13;100.00
17054;BME280;8643;48.824;11.422;2023-07-09T05:00:39;97460.97;;;16.22;100.00
17054;BME280;8643;48.824;11.422;2023-07-09T05:03:08;97453.56;;;16.42;100.00
17054;BME280;8643;48.824;11.422;2023-07-09T05:05:42;97461.84;;;16.58;99.96
17054;BME280;8643;48.824;11.422;2023-07-09T05:08:12;97454.94;;;16.83;98.00
17054;BME280;8643;48.824;11.422;2023-07-09T05:10:44;97461.19;;;17.16;95.29
17054;BME280;8643;48.824;11.422;2023-07-09T05:13:14;97460.13;;;17.40;94.55
17054;BME280;8643;48.824;11.422;2023-07-09T05:15:45;97467.94;;;17.34;92.31
17054;BME280;8643;48.824;11.422;2023-07-09T05:18:15;97469.97;;;17.37;92.43
17054;BME280;8643;48.824;11.422;2023-07-09T05:20:45;97470.91;;;17.45;93.24
17054;BME280;8643;48.824;11.422;2023-07-09T05:23:14;97472.66;;;17.53;94.28
17054;BME280;8643;48.824;11.422;2023-07-09T05:25:43;97465.00;;;17.66;95.98
17054;BME280;8643;48.824;11.422;2023-07-09T05:28:13;97461.19;;;17.74;95.88
17054;BME280;8643;48.824;11.422;2023-07-09T05:30:42;97469.66;;;17.82;95.42
17054;BME280;8643;48.824;11.422;2023-07-09T05:33:11;97474.97;;;17.90;93.13
17054;BME280;8643;48.824;11.422;2023-07-09T05:35:42;97475.50;;;17.96;93.21
17054;BME280;8643;48.824;11.422;2023-07-09T05:38:11;97474.56;;;18.11;93.01
17054;BME280;8643;48.824;11.422;2023-07-09T05:40:39;97471.75;;;18.31;90.74
17054;BME280;8643;48.824;11.422;2023-07-09T05:43:08;97482.84;;;18.31;89.55
17054;BME280;8643;48.824;11.422;2023-07-09T05:45:40;97482.53;;;18.36;90.83
17054;BME280;8643;48.824;11.422;2023-07-09T05:48:09;97486.78;;;18.53;90.15
17054;BME280;8643;48.824;11.422;2023-07-09T05:50:38;97485.78;;;18.65;89.85
17054;BME280;8643;48.824;11.422;2023-07-09T05:53:06;97484.53;;;18.85;85.72
17054;BME280;8643;48.824;11.422;2023-07-09T05:55:35;97483.25;;;19.06;87.47
17054;BME280;8643;48.824;11.422;2023-07-09T05:58:04;97484.91;;;19.11;87.55
17054;BME280;8643;48.824;11.422;2023-07-09T06:00:32;97493.19;;;19.37;84.56
17054;BME280;8643;48.824;11.422;2023-07-09T06:03:02;97491.88;;;19.58;82.07
17054;BME280;8643;48.824;11.422;2023-07-09T06:05:35;97487.47;;;19.87;82.45
17054;BME280;8643;48.824;11.422;2023-07-09T06:08:04;97487.38;;;20.59;79.27
17054;BME280;8643;48.824;11.422;2023-07-09T06:10:33;97480.25;;;21.17;73.36
17054;BME280;8643;48.824;11.422;2023-07-09T06:13:01;97484.06;;;21.64;73.92
17054;BME280;8643;48.824;11.422;2023-07-09T06:15:30;97488.97;;;22.03;72.22
17054;BME280;8643;48.824;11.422;2023-07-09T06:17:58;97494.69;;;22.39;68.53
17054;BME280;8643;48.824;11.422;2023-07-09T06:20:28;97484.69;;;22.92;70.63
17054;BME280;8643;48.824;11.422;2023-07-09T06:22:57;97485.91;;;23.13;65.78
17054;BME280;8643;48.824;11.422;2023-07-09T06:25:27;97495.41;;;23.37;68.87
17054;BME280;8643;48.824;11.422;2023-07-09T06:27:57;97497.28;;;23.83;67.95
17054;BME280;8643;48.824;11.422;2023-07-09T06:30:26;97491.66;;;23.79;64.04
17054;BME280;8643;48.824;11.422;2023-07-09T06:32:55;97493.50;;;24.15;63.15
17054;BME280;8643;48.824;11.422;2023-07-09T06:35:23;97499.25;;;24.57;64.93
17054;BME280;8643;48.824;11.422;2023-07-09T06:37:53;97506.28;;;24.79;58.55
17054;BME280;8643;48.824;11.422;2023-07-09T06:40:21;97500.75;;;25.14;62.60
17054;BME280;8643;48.824;11.422;2023-07-09T06:42:51;97499.84;;;25.24;59.82
17054;BME280;8643;48.824;11.422;2023-07-09T06:45:25;97491.47;;;25.62;57.92
17054;BME280;8643;48.824;11.422;2023-07-09T06:47:54;97501.69;;;25.76;59.92
17054;BME280;8643;48.824;11.422;2023-07-09T06:50:22;97502.19;;;26.02;60.06
17054;BME280;8643;48.824;11.422;2023-07-09T06:52:52;97491.81;;;26.53;52.71
17054;BME280;8643;48.824;11.422;2023-07-09T06:55:21;97498.31;;;26.50;57.78
17054;BME280;8643;48.824;11.422;2023-07-09T06:57:50;97490.97;;;26.83;58.13
17054;BME280;8643;48.824;11.422;2023-07-09T07:00:19;97489.94;;;26.74;61.96
17054;BME280;8643;48.824;11.422;2023-07-09T07:02:47;97496.63;;;27.03;59.24
17054;BME280;8643;48.824;11.422;2023-07-09T07:05:19;97493.84;;;26.52;59.05
17054;BME280;8643;48.824;11.422;2023-07-09T07:07:49;97488.16;;;27.07;61.01
17054;BME280;8643;48.824;11.422;2023-07-09T07:10:19;97490.69;;;27.21;58.47
17054;BME280;8643;48.824;11.422;2023-07-09T07:12:48;97497.72;;;27.10;53.00
17054;BME280;8643;48.824;11.422;2023-07-09T07:15:18;97493.78;;;27.31;56.79
17054;BME280;8643;48.824;11.422;2023-07-09T07:17:46;97505.97;;;27.44;52.01
17054;BME280;8643;48.824;11.422;2023-07-09T07:20:16;97495.38;;;27.72;48.85
17054;BME280;8643;48.824;11.422;2023-07-09T07:22:45;97502.28;;;27.47;47.86
17054;BME280;8643;48.824;11.422;2023-07-09T07:25:15;97495.28;;;27.35;50.33
17054;BME280;8643;48.824;11.422;2023-07-09T07:27:45;97500.63;;;27.70;46.01
17054;BME280;8643;48.824;11.422;2023-07-09T07:30:13;97494.56;;;27.91;45.51
17054;BME280;8643;48.824;11.422;2023-07-09T07:32:47;97494.78;;;28.37;44.67
17054;BME280;8643;48.824;11.422;2023-07-09T07:35:16;97503.13;;;28.24;48.93
17054;BME280;8643;48.824;11.422;2023-07-09T07:37:46;97496.91;;;28.33;47.80
17054;BME280;8643;48.824;11.422;2023-07-09T07:40:16;97493.41;;;28.09;53.16
17054;BME280;8643;48.824;11.422;2023-07-09T07:42:46;97491.56;;;28.71;48.54
17054;BME280;8643;48.824;11.422;2023-07-09T07:45:15;97492.63;;;29.56;50.59
17054;BME280;8643;48.824;11.422;2023-07-09T07:47:44;97496.47;;;29.62;41.89
17054;BME280;8643;48.824;11.422;2023-07-09T07:50:13;97500.72;;;29.25;45.62
17054;BME280;8643;48.824;11.422;2023-07-09T07:52:41;97498.97;;;28.98;47.12
17054;BME280;8643;48.824;11.422;2023-07-09T07:55:10;97500.03;;;29.21;50.96
17054;BME280;8643;48.824;11.422;2023-07-09T07:57:45;97506.56;;;30.06;48.87
17054;BME280;8643;48.824;11.422;2023-07-09T08:00:15;97497.72;;;29.91;48.12
17054;BME280;8643;48.824;11.422;2023-07-09T08:02:46;97495.00;;;30.00;44.21
17054;BME280;8643;48.824;11.422;2023-07-09T08:05:15;97493.41;;;29.86;41.84
17054;BME280;8643;48.824;11.422;2023-07-09T08:07:44;97493.03;;;30.39;48.66
17054;BME280;8643;48.824;11.422;2023-07-09T08:10:13;97489.16;;;29.94;41.97
17054;BME280;8643;48.824;11.422;2023-07-09T08:12:42;97485.78;;;30.64;40.92
17054;BME280;8643;48.824;11.422;2023-07-09T08:15:13;97488.56;;;31.15;43.15
17054;BME280;8643;48.824;11.422;2023-07-09T08:17:41;97480.78;;;30.94;44.72
17054;BME280;8643;48.824;11.422;2023-07-09T08:20:11;97472.72;;;31.53;43.33
17054;BME280;8643;48.824;11.422;2023-07-09T08:22:39;97481.06;;;31.78;41.27
17054;BME280;8643;48.824;11.422;2023-07-09T08:25:08;97479.84;;;31.57;42.85
17054;BME280;8643;48.824;11.422;2023-07-09T08:27:37;97477.09;;;31.98;42.25
17054;BME280;8643;48.824;11.422;2023-07-09T08:30:07;97476.50;;;32.03;46.04
17054;BME280;8643;48.824;11.422;2023-07-09T08:32:37;97475.78;;;32.43;43.49
17054;BME280;8643;48.824;11.422;2023-07-09T08:35:06;97481.56;;;32.30;42.49
17054;BME280;8643;48.824;11.422;2023-07-09T08:37:40;97471.94;;;32.68;38.72
17054;BME280;8643;48.824;11.422;2023-07-09T08:40:13;97478.13;;;32.45;38.80
17054;BME280;8643;48.824;11.422;2023-07-09T08:42:44;97483.09;;;32.22;40.39
17054;BME280;8643;48.824;11.422;2023-07-09T08:45:39;97473.34;;;32.01;41.70
17054;BME280;8643;48.824;11.422;2023-07-09T08:48:20;97477.69;;;32.56;39.14
17054;BME280;8643;48.824;11.422;2023-07-09T08:50:55;97471.97;;;32.37;41.20
17054;BME280;8643;48.824;11.422;2023-07-09T08:53:33;97474.41;;;33.16;38.73
17054;BME280;8643;48.824;11.422;2023-07-09T08:56:03;97469.84;;;33.84;37.43
17054;BME280;8643;48.824;11.422;2023-07-09T08:58:34;97475.47;;;34.11;35.30
17054;BME280;8643;48.824;11.422;2023-07-09T09:01:06;97480.09;;;33.53;36.57
17054;BME280;8643;48.824;11.422;2023-07-09T09:03:47;97481.69;;;33.45;39.62
17054;BME280;8643;48.824;11.422;2023-07-09T09:06:21;97476.47;;;33.81;35.36
17054;BME280;8643;48.824;11.422;2023-07-09T09:09:03;97476.34;;;33.38;36.54
17054;BME280;8643;48.824;11.422;2023-07-09T09:11:43;97476.94;;;33.79;35.59
17054;BME280;8643;48.824;11.422;2023-07-09T09:14:26;97479.56;;;34.10;35.90
17054;BME280;8643;48.824;11.422;2023-07-09T09:16:56;97474.81;;;34.16;34.33
17054;BME280;8643;48.824;11.422;2023-07-09T09:19:29;97473.31;;;34.40;34.71
17054;BME280;8643;48.824;11.422;2023-07-09T09:22:09;97478.97;;;34.49;34.97
17054;BME280;8643;48.824;11.422;2023-07-09T09:24:58;97473.47;;;34.79;39.63
17054;BME280;8643;48.824;11.422;2023-07-09T09:27:28;97474.41;;;35.09;34.75
17054;BME280;8643;48.824;11.422;2023-07-09T09:29:57;97482.50;;;35.01;34.64
17054;BME280;8643;48.824;11.422;2023-07-09T09:32:31;97469.81;;;35.66;33.38
17054;BME280;8643;48.824;11.422;2023-07-09T09:35:14;97475.69;;;35.47;35.21
17054;BME280;8643;48.824;11.422;2023-07-09T09:37:51;97471.03;;;35.35;33.71
17054;BME280;8643;48.824;11.422;2023-07-09T09:40:21;97473.03;;;35.83;34.16
17054;BME280;8643;48.824;11.422;2023-07-09T09:42:52;97476.78;;;35.89;30.23
17054;BME280;8643;48.824;11.422;2023-07-09T09:45:28;97472.69;;;34.78;36.27
17054;BME280;8643;48.824;11.422;2023-07-09T09:48:00;97476.09;;;35.16;34.03
17054;BME280;8643;48.824;11.422;2023-07-09T09:50:33;97465.00;;;35.18;31.51
17054;BME280;8643;48.824;11.422;2023-07-09T09:53:01;97474.63;;;34.96;32.98
17054;BME280;8643;48.824;11.422;2023-07-09T09:55:31;97469.78;;;35.36;36.79
17054;BME280;8643;48.824;11.422;2023-07-09T09:58:00;97467.13;;;35.86;29.77
17054;BME280;8643;48.824;11.422;2023-07-09T10:00:30;97472.22;;;35.82;30.39
17054;BME280;8643;48.824;11.422;2023-07-09T10:03:03;97473.81;;;35.20;31.28
17054;BME280;8643;48.824;11.422;2023-07-09T10:05:43;97470.66;;;36.11;33.50
17054;BME280;8643;48.824;11.422;2023-07-09T10:08:22;97470.25;;;36.03;28.01
17054;BME280;8643;48.824;11.422;2023-07-09T10:11:11;97471.31;;;36.50;30.98
17054;BME280;8643;48.824;11.422;2023-07-09T10:13:43;97471.66;;;35.78;28.19
17054;BME280;8643;48.824;11.422;2023-07-09T10:16:23;97458.59;;;35.86;29.05
17054;BME280;8643;48.824;11.422;2023-07-09T10:19:08;97461.63;;;35.97;29.67
17054;BME280;8643;48.824;11.422;2023-07-09T10:21:46;97457.31;;;36.02;30.92
17054;BME280;8643;48.824;11.422;2023-07-09T10:24:37;97454.78;;;35.50;34.76
17054;BME280;8643;48.824;11.422;2023-07-09T10:27:17;97465.63;;;36.21;30.97
17054;BME280;8643;48.824;11.422;2023-07-09T10:33:07;97449.16;;;35.80;29.79
17054;BME280;8643;48.824;11.422;2023-07-09T10:35:42;97461.91;;;35.31;29.91
17054;BME280;8643;48.824;11.422;2023-07-09T10:38:30;97455.81;;;36.22;28.51
17054;BME280;8643;48.824;11.422;2023-07-09T10:41:03;97453.56;;;36.11;26.92
17054;BME280;8643;48.824;11.422;2023-07-09T10:43:59;97455.94;;;36.78;31.30
17054;BME280;8643;48.824;11.422;2023-07-09T10:46:32;97446.72;;;35.10;28.20
17054;BME280;8643;48.824;11.422;2023-07-09T10:49:04;97446.75;;;35.49;29.50
17054;BME280;8643;48.824;11.422;2023-07-09T10:51:39;97448.81;;;36.23;29.70
17054;BME280;8643;48.824;11.422;2023-07-09T10:54:22;97447.00;;;36.55;31.44
17054;BME280;8643;48.824;11.422;2023-07-09T10:57:00;97443.94;;;36.08;28.91
17054;BME280;8643;48.824;11.422;2023-07-09T10:59:35;97447.84;;;35.66;29.76
17054;BME280;8643;48.824;11.422;2023-07-09T11:02:17;97442.06;;;35.75;31.45
17054;BME280;8643;48.824;11.422;2023-07-09T11:04:52;97432.72;;;36.35;31.64
17054;BME280;8643;48.824;11.422;2023-07-09T11:07:29;97435.41;;;36.74;31.80
17054;BME280;8643;48.824;11.422;2023-07-09T11:10:02;97436.13;;;35.64;32.27
17054;BME280;8643;48.824;11.422;2023-07-09T11:12:36;97437.06;;;36.65;28.03
17054;BME280;8643;48.824;11.422;2023-07-09T11:15:15;97437.13;;;36.71;28.36
17054;BME280;8643;48.824;11.422;2023-07-09T11:17:47;97433.13;;;35.97;29.05
17054;BME280;8643;48.824;11.422;2023-07-09T11:20:20;97432.66;;;35.84;27.38
17054;BME280;8643;48.824;11.422;2023-07-09T11:22:54;97433.63;;;36.11;28.97
17054;BME280;8643;48.824;11.422;2023-07-09T11:25:41;97433.69;;;36.67;26.78
17054;BME280;8643;48.824;11.422;2023-07-09T11:28:10;97434.97;;;37.22;26.68
17054;BME280;8643;48.824;11.422;2023-07-09T11:30:48;97433.06;;;37.60;25.56
17054;BME280;8643;48.824;11.422;2023-07-09T11:33:20;97438.47;;;37.32;24.65
17054;BME280;8643;48.824;11.422;2023-07-09T11:35:54;97420.91;;;36.98;25.03
17054;BME280;8643;48.824;11.422;2023-07-09T11:38:41;97418.41;;;35.84;26.82
17054;BME280;8643;48.824;11.422;2023-07-09T11:41:35;97418.97;;;36.33;27.80
17054;BME280;8643;48.824;11.422;2023-07-09T11:44:15;97416.81;;;36.13;24.98
17054;BME280;8643;48.824;11.422;2023-07-09T11:47:08;97419.13;;;35.79;25.45
17054;BME280;8643;48.824;11.422;2023-07-09T11:49:51;97417.28;;;36.62;26.26
17054;BME280;8643;48.824;11.422;2023-07-09T11:52:31;97410.22;;;36.72;24.20
17054;BME280;8643;48.824;11.422;2023-07-09T11:55:25;97416.19;;;37.15;24.53
17054;BME280;8643;48.824;11.422;2023-07-09T11:57:57;97402.09;;;37.53;24.94
17054;BME280;8643;48.824;11.422;2023-07-09T12:00:30;97409.34;;;38.06;24.02
17054;BME280;8643;48.824;11.422;2023-07-09T12:02:59;97410.50;;;37.88;25.27
17054;BME280;8643;48.824;11.422;2023-07-09T12:05:30;97405.13;;;37.96;25.20
17054;BME280;8643;48.824;11.422;2023-07-09T12:07:59;97400.06;;;37.80;23.91
17054;BME280;8643;48.824;11.422;2023-07-09T12:10:34;97398.69;;;37.49;25.05
17054;BME280;8643;48.824;11.422;2023-07-09T12:13:05;97382.38;;;37.81;25.80
17054;BME280;8643;48.824;11.422;2023-07-09T12:15:34;97372.56;;;37.61;27.61
17054;BME280;8643;48.824;11.422;2023-07-09T12:18:08;97370.44;;;36.12;26.38
17054;BME280;8643;48.824;11.422;2023-07-09T12:20:38;97369.81;;;36.59;27.94
17054;BME280;8643;48.824;11.422;2023-07-09T12:23:11;97371.03;;;36.02;29.39
17054;BME280;8643;48.824;11.422;2023-07-09T12:25:49;97371.78;;;35.13;26.80
17054;BME280;8643;48.824;11.422;2023-07-09T12:28:22;97367.69;;;36.03;28.01
17054;BME280;8643;48.824;11.422;2023-07-09T12:30:52;97364.75;;;35.97;27.66
17054;BME280;8643;48.824;11.422;2023-07-09T12:33:24;97363.56;;;36.96;29.12
17054;BME280;8643;48.824;11.422;2023-07-09T12:35:57;97358.84;;;37.13;28.15
17054;BME280;8643;48.824;11.422;2023-07-09T12:38:29;97366.81;;;37.56;28.33
17054;BME280;8643;48.824;11.422;2023-07-09T12:41:00;97375.28;;;37.71;23.64
17054;BME280;8643;48.824;11.422;2023-07-09T12:43:32;97360.75;;;36.60;27.16
17054;BME280;8643;48.824;11.422;2023-07-09T12:46:02;97352.69;;;36.74;26.21
17054;BME280;8643;48.824;11.422;2023-07-09T12:48:31;97349.13;;;37.52;24.68
17054;BME280;8643;48.824;11.422;2023-07-09T12:50:59;97350.78;;;37.64;23.32
17054;BME280;8643;48.824;11.422;2023-07-09T12:53:31;97336.13;;;37.51;25.00
17054;BME280;8643;48.824;11.422;2023-07-09T12:56:01;97348.19;;;37.34;24.18
17054;BME280;8643;48.824;11.422;2023-07-09T12:58:36;97344.69;;;37.51;23.86
17054;BME280;8643;48.824;11.422;2023-07-09T13:01:08;97345.66;;;36.75;26.07
17054;BME280;8643;48.824;11.422;2023-07-09T13:03:40;97339.97;;;36.54;25.76
17054;BME280;8643;48.824;11.422;2023-07-09T13:06:28;97344.13;;;36.59;24.44
17054;BME280;8643;48.824;11.422;2023-07-09T13:08:59;97349.19;;;36.49;26.95
17054;BME280;8643;48.824;11.422;2023-07-09T13:11:34;97346.50;;;36.40;25.42
17054;BME280;8643;48.824;11.422;2023-07-09T13:14:17;97345.59;;;36.90;25.12
17054;BME280;8643;48.824;11.422;2023-07-09T13:16:47;97335.63;;;36.79;24.52
17054;BME280;8643;48.824;11.422;2023-07-09T13:19:17;97342.66;;;36.43;25.84
17054;BME280;8643;48.824;11.422;2023-07-09T13:21:46;97339.81;;;35.63;27.18
17054;BME280;8643;48.824;11.422;2023-07-09T13:24:19;97338.84;;;35.81;26.99
17054;BME280;8643;48.824;11.422;2023-07-09T13:26:49;97334.69;;;35.96;24.37
17054;BME280;8643;48.824;11.422;2023-07-09T13:29:20;97335.94;;;36.66;26.42